sensor_id;sensor_type;location;lat;lon;timestamp;temperature;humidity
23719;DHT22;43322;52.230;5.702;2023-04-23T00:01:59;8.40;99.90
23719;DHT22;43322;52.230;5.702;2023-04-23T00:04:27;8.40;99.90
23719;DHT22;43322;52.230;5.702;2023-04-23T00:06:56;8.40;99.90
23719;DHT22;43322;52.230;5.702;2023-04-23T00:09:25;8.40;99.90
23719;DHT22;43322;52.230;5.702;2023-04-23T00:11:53;8.30;99.90
23719;DHT22;43322;52.230;5.702;2023-04-23T00:14:22;8.30;99.90
23719;DHT22;43322;52.230;5.702;2023-04-23T00:16:49;8.30;99.90
23719;DHT22;43322;52.230;5.702;2023-04-23T00:19:16;8.30;99.90
23719;DHT22;43322;52.230;5.702;2023-04-23T00:21:43;8.30;99.90
23719;DHT22;43322;52.230;5.702;2023-04-23T00:24:10;8.30;99.90
23719;DHT22;43322;52.230;5.702;2023-04-23T00:26:37;8.20;99.90
23719;DHT22;43322;52.230;5.702;2023-04-23T00:29:03;8.30;99.90
23719;DHT22;43322;52.230;5.702;2023-04-23T00:31:31;8.20;99.90
23719;DHT22;43322;52.230;5.702;2023-04-23T00:33:58;8.20;99.90
23719;DHT22;43322;52.230;5.702;2023-04-23T00:36:25;8.20;99.90
23719;DHT22;43322;52.230;5.702;2023-04-23T00:38:51;8.20;99.90
23719;DHT22;43322;52.230;5.702;2023-04-23T00:41:18;8.20;99.90
23719;DHT22;43322;52.230;5.702;2023-04-23T00:43:46;8.10;99.90
23719;DHT22;43322;52.230;5.702;2023-04-23T00:46:13;8.10;99.90
23719;DHT22;43322;52.230;5.702;2023-04-23T00:48:43;8.10;99.90
23719;DHT22;43322;52.230;5.702;2023-04-23T00:51:11;8.10;99.90
23719;DHT22;43322;52.230;5.702;2023-04-23T00:53:37;8.10;99.90
23719;DHT22;43322;52.230;5.702;2023-04-23T00:56:04;8.00;99.90
23719;DHT22;43322;52.230;5.702;2023-04-23T00:58:33;8.00;99.90
23719;DHT22;43322;52.230;5.702;2023-04-23T01:01:00;8.00;99.90
23719;DHT22;43322;52.230;5.702;2023-04-23T01:03:29;8.00;99.90
23719;DHT22;43322;52.230;5.702;2023-04-23T01:05:57;7.90;99.90
23719;DHT22;43322;52.230;5.702;2023-04-23T01:08:25;7.90;99.90
23719;DHT22;43322;52.230;5.702;2023-04-23T01:10:52;7.90;99.90
23719;DHT22;43322;52.230;5.702;2023-04-23T01:13:19;7.90;99.90
23719;DHT22;43322;52.230;5.702;2023-04-23T01:15:46;7.80;99.90
23719;DHT22;43322;52.230;5.702;2023-04-23T01:18:13;7.90;99.90
23719;DHT22;43322;52.230;5.702;2023-04-23T01:20:40;7.90;99.90
23719;DHT22;43322;52.230;5.702;2023-04-23T01:23:09;7.90;99.90
23719;DHT22;43322;52.230;5.702;2023-04-23T01:25:36;7.80;99.90
23719;DHT22;43322;52.230;5.702;2023-04-23T01:28:03;7.90;99.90
23719;DHT22;43322;52.230;5.702;2023-04-23T01:30:31;7.90;99.90
23719;DHT22;43322;52.230;5.702;2023-04-23T01:32:57;7.80;99.90
23719;DHT22;43322;52.230;5.702;2023-04-23T01:35:25;7.90;99.90
23719;DHT22;43322;52.230;5.702;2023-04-23T01:37:53;7.90;99.90
23719;DHT22;43322;52.230;5.702;2023-04-23T01:40:21;7.90;99.90
23719;DHT22;43322;52.230;5.702;2023-04-23T01:42:48;7.90;99.90
23719;DHT22;43322;52.230;5.702;2023-04-23T01:45:15;7.90;99.90
23719;DHT22;43322;52.230;5.702;2023-04-23T01:47:44;8.00;99.90
23719;DHT22;43322;52.230;5.702;2023-04-23T01:50:11;7.90;99.90
23719;DHT22;43322;52.230;5.702;2023-04-23T01:52:38;8.00;99.90
23719;DHT22;43322;52.230;5.702;2023-04-23T01:55:05;7.90;99.90
23719;DHT22;43322;52.230;5.702;2023-04-23T01:57:33;8.00;99.90
23719;DHT22;43322;52.230;5.702;2023-04-23T02:00:03;7.90;99.90
23719;DHT22;43322;52.230;5.702;2023-04-23T02:02:32;7.90;99.90
23719;DHT22;43322;52.230;5.702;2023-04-23T02:05:00;7.90;99.90
23719;DHT22;43322;52.230;5.702;2023-04-23T02:07:29;7.90;99.90
23719;DHT22;43322;52.230;5.702;2023-04-23T02:09:56;7.90;99.90
23719;DHT22;43322;52.230;5.702;2023-04-23T02:12:22;7.90;99.90
23719;DHT22;43322;52.230;5.702;2023-04-23T02:14:50;7.90;99.90
23719;DHT22;43322;52.230;5.702;2023-04-23T02:17:18;7.80;99.90
23719;DHT22;43322;52.230;5.702;2023-04-23T02:19:46;7.80;99.90
23719;DHT22;43322;52.230;5.702;2023-04-23T02:22:13;7.80;99.90
23719;DHT22;43322;52.230;5.702;2023-04-23T02:24:39;7.80;99.90
23719;DHT22;43322;52.230;5.702;2023-04-23T02:27:07;7.90;99.90
23719;DHT22;43322;52.230;5.702;2023-04-23T02:29:34;7.90;99.90
23719;DHT22;43322;52.230;5.702;2023-04-23T02:32:02;8.20;99.90
23719;DHT22;43322;52.230;5.702;2023-04-23T02:34:29;8.00;99.90
23719;DHT22;43322;52.230;5.702;2023-04-23T02:36:56;8.10;99.90
23719;DHT22;43322;52.230;5.702;2023-04-23T02:39:23;8.10;99.90
23719;DHT22;43322;52.230;5.702;2023-04-23T02:41:50;8.10;99.90
23719;DHT22;43322;52.230;5.702;2023-04-23T02:44:17;8.20;99.90
23719;DHT22;43322;52.230;5.702;2023-04-23T02:46:43;8.90;99.90
23719;DHT22;43322;52.230;5.702;2023-04-23T02:49:12;8.20;99.90
23719;DHT22;43322;52.230;5.702;2023-04-23T02:51:39;8.20;99.90
23719;DHT22;43322;52.230;5.702;2023-04-23T02:54:05;8.30;99.90
23719;DHT22;43322;52.230;5.702;2023-04-23T02:56:32;8.20;99.90
23719;DHT22;43322;52.230;5.702;2023-04-23T02:59:00;8.20;99.90
23719;DHT22;43322;52.230;5.702;2023-04-23T03:01:26;8.20;99.90
23719;DHT22;43322;52.230;5.702;2023-04-23T03:03:53;8.20;99.90
23719;DHT22;43322;52.230;5.702;2023-04-23T03:06:21;8.80;99.90
23719;DHT22;43322;52.230;5.702;2023-04-23T03:08:48;8.20;99.90
23719;DHT22;43322;52.230;5.702;2023-04-23T03:11:15;8.30;99.90
23719;DHT22;43322;52.230;5.702;2023-04-23T03:13:41;8.30;99.90
23719;DHT22;43322;52.230;5.702;2023-04-23T03:16:08;8.40;99.90
23719;DHT22;43322;52.230;5.702;2023-04-23T03:18:35;8.30;99.90
23719;DHT22;43322;52.230;5.702;2023-04-23T03:21:02;8.40;99.90
23719;DHT22;43322;52.230;5.702;2023-04-23T03:23:30;8.40;99.90
23719;DHT22;43322;52.230;5.702;2023-04-23T03:25:57;8.40;99.90
23719;DHT22;43322;52.230;5.702;2023-04-23T03:28:24;8.40;99.90
23719;DHT22;43322;52.230;5.702;2023-04-23T03:30:50;8.40;99.90
23719;DHT22;43322;52.230;5.702;2023-04-23T03:33:17;8.40;99.90
23719;DHT22;43322;52.230;5.702;2023-04-23T03:35:44;8.40;99.90
23719;DHT22;43322;52.230;5.702;2023-04-23T03:38:10;8.50;99.90
23719;DHT22;43322;52.230;5.702;2023-04-23T03:40:38;8.40;99.90
23719;DHT22;43322;52.230;5.702;2023-04-23T03:43:05;8.40;99.90
23719;DHT22;43322;52.230;5.702;2023-04-23T03:45:32;8.40;99.90
23719;DHT22;43322;52.230;5.702;2023-04-23T03:47:58;8.40;99.90
23719;DHT22;43322;52.230;5.702;2023-04-23T03:50:25;8.40;99.90
23719;DHT22;43322;52.230;5.702;2023-04-23T03:52:52;8.40;99.90
23719;DHT22;43322;52.230;5.702;2023-04-23T03:55:18;8.40;99.90
23719;DHT22;43322;52.230;5.702;2023-04-23T03:57:47;8.30;99.90
23719;DHT22;43322;52.230;5.702;2023-04-23T04:00:13;8.30;99.90
23719;DHT22;43322;52.230;5.702;2023-04-23T04:02:40;8.30;99.90
23719;DHT22;43322;52.230;5.702;2023-04-23T04:05:07;8.30;99.90
23719;DHT22;43322;52.230;5.702;2023-04-23T04:07:35;8.20;99.90
23719;DHT22;43322;52.230;5.702;2023-04-23T04:10:02;8.20;99.90
23719;DHT22;43322;52.230;5.702;2023-04-23T04:12:29;8.20;99.90
23719;DHT22;43322;52.230;5.702;2023-04-23T04:14:57;8.20;99.90
23719;DHT22;43322;52.230;5.702;2023-04-23T04:17:24;8.20;99.90
23719;DHT22;43322;52.230;5.702;2023-04-23T04:19:50;8.20;99.90
23719;DHT22;43322;52.230;5.702;2023-04-23T04:22:17;8.20;99.90
23719;DHT22;43322;52.230;5.702;2023-04-23T04:24:44;8.20;99.90
23719;DHT22;43322;52.230;5.702;2023-04-23T04:27:13;8.20;99.90
23719;DHT22;43322;52.230;5.702;2023-04-23T04:29:40;7.90;99.90
23719;DHT22;43322;52.230;5.702;2023-04-23T04:32:08;8.10;99.90
23719;DHT22;43322;52.230;5.702;2023-04-23T04:34:36;8.10;99.90
23719;DHT22;43322;52.230;5.702;2023-04-23T04:37:03;8.10;99.90
23719;DHT22;43322;52.230;5.702;2023-04-23T04:39:31;8.10;99.90
23719;DHT22;43322;52.230;5.702;2023-04-23T04:42:00;7.90;99.90
23719;DHT22;43322;52.230;5.702;2023-04-23T04:44:28;8.00;99.90
23719;DHT22;43322;52.230;5.702;2023-04-23T04:46:54;7.90;99.90
23719;DHT22;43322;52.230;5.702;2023-04-23T04:49:22;8.00;99.90
23719;DHT22;43322;52.230;5.702;2023-04-23T04:51:49;7.90;99.90
23719;DHT22;43322;52.230;5.702;2023-04-23T04:54:18;7.90;99.90
23719;DHT22;43322;52.230;5.702;2023-04-23T04:56:45;8.00;99.90
23719;DHT22;43322;52.230;5.702;2023-04-23T04:59:12;7.90;99.90
23719;DHT22;43322;52.230;5.702;2023-04-23T05:01:38;7.90;99.90
23719;DHT22;43322;52.230;5.702;2023-04-23T05:04:05;7.90;99.90
23719;DHT22;43322;52.230;5.702;2023-04-23T05:06:33;7.90;99.90
23719;DHT22;43322;52.230;5.702;2023-04-23T05:09:00;8.00;99.90
23719;DHT22;43322;52.230;5.702;2023-04-23T05:11:27;7.40;99.90
23719;DHT22;43322;52.230;5.702;2023-04-23T05:13:53;8.10;99.90
23719;DHT22;43322;52.230;5.702;2023-04-23T05:16:20;8.10;99.90
23719;DHT22;43322;52.230;5.702;2023-04-23T05:18:47;8.20;99.90
23719;DHT22;43322;52.230;5.702;2023-04-23T05:21:14;8.20;99.90
23719;DHT22;43322;52.230;5.702;2023-04-23T05:23:42;8.20;99.90
23719;DHT22;43322;52.230;5.702;2023-04-23T05:26:09;8.20;99.90
23719;DHT22;43322;52.230;5.702;2023-04-23T05:28:36;8.20;99.90
23719;DHT22;43322;52.230;5.702;2023-04-23T05:31:02;8.20;99.90
23719;DHT22;43322;52.230;5.702;2023-04-23T05:33:29;8.20;99.90
23719;DHT22;43322;52.230;5.702;2023-04-23T05:35:56;8.20;99.90
23719;DHT22;43322;52.230;5.702;2023-04-23T05:38:23;8.20;99.90
23719;DHT22;43322;52.230;5.702;2023-04-23T05:40:51;8.20;99.90
23719;DHT22;43322;52.230;5.702;2023-04-23T05:43:18;8.30;99.90
23719;DHT22;43322;52.230;5.702;2023-04-23T05:45:45;8.30;99.90
23719;DHT22;43322;52.230;5.702;2023-04-23T05:48:11;8.20;99.90
23719;DHT22;43322;52.230;5.702;2023-04-23T05:50:38;8.20;99.90
23719;DHT22;43322;52.230;5.702;2023-04-23T05:53:05;8.20;99.90
23719;DHT22;43322;52.230;5.702;2023-04-23T05:55:32;8.20;99.90
23719;DHT22;43322;52.230;5.702;2023-04-23T05:58:00;8.30;99.90
23719;DHT22;43322;52.230;5.702;2023-04-23T06:00:27;8.30;99.90
23719;DHT22;43322;52.230;5.702;2023-04-23T06:02:53;8.30;99.90
23719;DHT22;43322;52.230;5.702;2023-04-23T06:05:20;8.20;99.90
23719;DHT22;43322;52.230;5.702;2023-04-23T06:07:47;8.60;99.90
23719;DHT22;43322;52.230;5.702;2023-04-23T06:10:14;8.70;99.90
23719;DHT22;43322;52.230;5.702;2023-04-23T06:12:40;8.90;99.90
23719;DHT22;43322;52.230;5.702;2023-04-23T06:15:09;9.00;99.90
23719;DHT22;43322;52.230;5.702;2023-04-23T06:17:36;9.10;99.90
23719;DHT22;43322;52.230;5.702;2023-04-23T06:20:04;9.10;99.90
23719;DHT22;43322;52.230;5.702;2023-04-23T06:22:31;9.30;99.90
23719;DHT22;43322;52.230;5.702;2023-04-23T06:24:58;9.50;99.90
23719;DHT22;43322;52.230;5.702;2023-04-23T06:27:25;9.60;99.90
23719;DHT22;43322;52.230;5.702;2023-04-23T06:29:52;9.70;99.90
23719;DHT22;43322;52.230;5.702;2023-04-23T06:32:20;9.90;99.90
23719;DHT22;43322;52.230;5.702;2023-04-23T06:34:47;9.90;99.90
23719;DHT22;43322;52.230;5.702;2023-04-23T06:37:14;10.00;99.90
23719;DHT22;43322;52.230;5.702;2023-04-23T06:39:41;10.10;99.90
23719;DHT22;43322;52.230;5.702;2023-04-23T06:42:08;10.20;99.90
23719;DHT22;43322;52.230;5.702;2023-04-23T06:44:34;10.30;99.90
23719;DHT22;43322;52.230;5.702;2023-04-23T06:47:01;10.40;99.90
23719;DHT22;43322;52.230;5.702;2023-04-23T06:49:29;11.10;99.90
23719;DHT22;43322;52.230;5.702;2023-04-23T06:51:56;10.60;99.90
23719;DHT22;43322;52.230;5.702;2023-04-23T06:54:22;10.70;99.90
23719;DHT22;43322;52.230;5.702;2023-04-23T06:56:49;11.00;99.90
23719;DHT22;43322;52.230;5.702;2023-04-23T06:59:16;11.10;99.90
23719;DHT22;43322;52.230;5.702;2023-04-23T07:01:43;11.40;99.90
23719;DHT22;43322;52.230;5.702;2023-04-23T07:04:10;11.60;99.90
23719;DHT22;43322;52.230;5.702;2023-04-23T07:06:38;11.70;99.90
23719;DHT22;43322;52.230;5.702;2023-04-23T07:09:05;11.80;99.90
23719;DHT22;43322;52.230;5.702;2023-04-23T07:11:31;11.80;99.90
23719;DHT22;43322;52.230;5.702;2023-04-23T07:14:00;12.00;99.90
23719;DHT22;43322;52.230;5.702;2023-04-23T07:16:27;12.20;99.90
23719;DHT22;43322;52.230;5.702;2023-04-23T07:18:58;12.50;99.90
23719;DHT22;43322;52.230;5.702;2023-04-23T07:21:25;12.50;99.90
23719;DHT22;43322;52.230;5.702;2023-04-23T07:23:55;12.60;99.90
23719;DHT22;43322;52.230;5.702;2023-04-23T07:26:23;12.70;99.90
23719;DHT22;43322;52.230;5.702;2023-04-23T07:28:50;12.80;99.90
23719;DHT22;43322;52.230;5.702;2023-04-23T07:31:16;12.70;99.90
23719;DHT22;43322;52.230;5.702;2023-04-23T07:33:44;12.90;99.90
23719;DHT22;43322;52.230;5.702;2023-04-23T07:36:10;12.90;99.90
23719;DHT22;43322;52.230;5.702;2023-04-23T07:38:37;13.00;99.90
23719;DHT22;43322;52.230;5.702;2023-04-23T07:41:05;13.00;99.90
23719;DHT22;43322;52.230;5.702;2023-04-23T07:43:32;13.00;99.90
23719;DHT22;43322;52.230;5.702;2023-04-23T07:45:59;13.00;99.90
23719;DHT22;43322;52.230;5.702;2023-04-23T07:48:25;13.00;99.90
23719;DHT22;43322;52.230;5.702;2023-04-23T07:50:52;13.10;99.90
23719;DHT22;43322;52.230;5.702;2023-04-23T07:53:19;13.20;99.90
23719;DHT22;43322;52.230;5.702;2023-04-23T07:55:46;13.10;99.90
23719;DHT22;43322;52.230;5.702;2023-04-23T07:58:14;13.00;99.90
23719;DHT22;43322;52.230;5.702;2023-04-23T08:00:41;13.00;99.90
23719;DHT22;43322;52.230;5.702;2023-04-23T08:03:08;13.20;99.90
23719;DHT22;43322;52.230;5.702;2023-04-23T08:05:34;13.40;99.90
23719;DHT22;43322;52.230;5.702;2023-04-23T08:08:03;13.60;99.90
23719;DHT22;43322;52.230;5.702;2023-04-23T08:10:30;13.70;99.90
23719;DHT22;43322;52.230;5.702;2023-04-23T08:12:56;13.90;99.90
23719;DHT22;43322;52.230;5.702;2023-04-23T08:15:24;14.10;99.90
23719;DHT22;43322;52.230;5.702;2023-04-23T08:17:51;13.80;99.90
23719;DHT22;43322;52.230;5.702;2023-04-23T08:20:18;13.90;99.90
23719;DHT22;43322;52.230;5.702;2023-04-23T08:22:45;13.90;99.90
23719;DHT22;43322;52.230;5.702;2023-04-23T08:25:11;14.00;99.90
23719;DHT22;43322;52.230;5.702;2023-04-23T08:27:38;14.20;99.90
23719;DHT22;43322;52.230;5.702;2023-04-23T08:30:06;14.10;99.90
23719;DHT22;43322;52.230;5.702;2023-04-23T08:32:35;14.20;99.90
23719;DHT22;43322;52.230;5.702;2023-04-23T08:35:02;15.10;99.90
23719;DHT22;43322;52.230;5.702;2023-04-23T08:37:29;15.20;99.90
23719;DHT22;43322;52.230;5.702;2023-04-23T08:39:56;16.00;99.90
23719;DHT22;43322;52.230;5.702;2023-04-23T08:42:29;16.10;99.90
23719;DHT22;43322;52.230;5.702;2023-04-23T08:44:59;15.80;99.90
23719;DHT22;43322;52.230;5.702;2023-04-23T08:47:28;15.90;99.90
23719;DHT22;43322;52.230;5.702;2023-04-23T08:49:58;15.60;99.90
23719;DHT22;43322;52.230;5.702;2023-04-23T08:52:26;16.00;99.90
23719;DHT22;43322;52.230;5.702;2023-04-23T08:55:00;16.50;99.90
23719;DHT22;43322;52.230;5.702;2023-04-23T08:57:27;17.00;99.90
23719;DHT22;43322;52.230;5.702;2023-04-23T08:59:56;16.90;99.90
23719;DHT22;43322;52.230;5.702;2023-04-23T09:02:23;17.30;99.90
23719;DHT22;43322;52.230;5.702;2023-04-23T09:04:51;16.70;99.90
23719;DHT22;43322;52.230;5.702;2023-04-23T09:07:20;16.10;99.90
23719;DHT22;43322;52.230;5.702;2023-04-23T09:09:46;16.20;99.90
23719;DHT22;43322;52.230;5.702;2023-04-23T09:12:14;16.40;99.90
23719;DHT22;43322;52.230;5.702;2023-04-23T09:14:40;16.30;99.90
23719;DHT22;43322;52.230;5.702;2023-04-23T09:17:07;16.20;99.90
23719;DHT22;43322;52.230;5.702;2023-04-23T09:19:35;16.20;99.90
23719;DHT22;43322;52.230;5.702;2023-04-23T09:22:03;16.30;99.90
23719;DHT22;43322;52.230;5.702;2023-04-23T09:24:33;16.10;99.90
23719;DHT22;43322;52.230;5.702;2023-04-23T09:27:00;15.80;99.90
23719;DHT22;43322;52.230;5.702;2023-04-23T09:29:27;16.10;99.90
23719;DHT22;43322;52.230;5.702;2023-04-23T09:31:55;16.50;99.90
23719;DHT22;43322;52.230;5.702;2023-04-23T09:34:23;17.20;99.90
23719;DHT22;43322;52.230;5.702;2023-04-23T09:36:52;16.90;99.90
23719;DHT22;43322;52.230;5.702;2023-04-23T09:39:21;16.80;99.90
23719;DHT22;43322;52.230;5.702;2023-04-23T09:41:50;16.70;99.90
23719;DHT22;43322;52.230;5.702;2023-04-23T09:44:17;16.90;99.90
23719;DHT22;43322;52.230;5.702;2023-04-23T09:46:44;17.20;99.90
23719;DHT22;43322;52.230;5.702;2023-04-23T09:49:13;17.60;99.90
23719;DHT22;43322;52.230;5.702;2023-04-23T09:51:41;17.50;99.90
23719;DHT22;43322;52.230;5.702;2023-04-23T09:54:11;17.80;99.90
23719;DHT22;43322;52.230;5.702;2023-04-23T09:56:38;18.10;99.90
23719;DHT22;43322;52.230;5.702;2023-04-23T09:59:20;18.40;99.90
23719;DHT22;43322;52.230;5.702;2023-04-23T10:01:47;19.00;99.90
23719;DHT22;43322;52.230;5.702;2023-04-23T10:04:17;18.90;99.90
23719;DHT22;43322;52.230;5.702;2023-04-23T10:06:44;18.60;99.90
23719;DHT22;43322;52.230;5.702;2023-04-23T10:09:11;18.70;99.90
23719;DHT22;43322;52.230;5.702;2023-04-23T10:11:38;19.00;99.90
23719;DHT22;43322;52.230;5.702;2023-04-23T10:14:06;19.30;99.90
23719;DHT22;43322;52.230;5.702;2023-04-23T10:16:35;19.20;99.90
23719;DHT22;43322;52.230;5.702;2023-04-23T10:19:03;19.70;99.90
23719;DHT22;43322;52.230;5.702;2023-04-23T10:21:32;19.30;99.90
23719;DHT22;43322;52.230;5.702;2023-04-23T10:24:01;19.20;99.90
23719;DHT22;43322;52.230;5.702;2023-04-23T10:26:30;19.50;99.90
23719;DHT22;43322;52.230;5.702;2023-04-23T10:28:59;19.80;99.90
23719;DHT22;43322;52.230;5.702;2023-04-23T10:31:27;20.00;99.90
23719;DHT22;43322;52.230;5.702;2023-04-23T10:33:58;20.50;99.90
23719;DHT22;43322;52.230;5.702;2023-04-23T10:36:26;20.90;99.90
23719;DHT22;43322;52.230;5.702;2023-04-23T10:38:53;20.90;99.90
23719;DHT22;43322;52.230;5.702;2023-04-23T10:41:22;21.80;99.90
23719;DHT22;43322;52.230;5.702;2023-04-23T10:43:52;21.10;99.90
23719;DHT22;43322;52.230;5.702;2023-04-23T10:46:29;20.50;99.90
23719;DHT22;43322;52.230;5.702;2023-04-23T10:49:06;20.10;99.90
23719;DHT22;43322;52.230;5.702;2023-04-23T10:51:33;20.50;99.90
23719;DHT22;43322;52.230;5.702;2023-04-23T10:54:02;20.60;99.90
23719;DHT22;43322;52.230;5.702;2023-04-23T10:56:30;20.30;99.90
23719;DHT22;43322;52.230;5.702;2023-04-23T10:58:57;19.60;99.90
23719;DHT22;43322;52.230;5.702;2023-04-23T11:01:26;19.00;99.90
23719;DHT22;43322;52.230;5.702;2023-04-23T11:03:55;19.00;99.90
23719;DHT22;43322;52.230;5.702;2023-04-23T11:06:56;19.10;99.90
23719;DHT22;43322;52.230;5.702;2023-04-23T11:09:31;18.80;99.90
23719;DHT22;43322;52.230;5.702;2023-04-23T11:11:58;18.20;99.90
23719;DHT22;43322;52.230;5.702;2023-04-23T11:14:50;17.80;99.90
23719;DHT22;43322;52.230;5.702;2023-04-23T11:17:57;18.20;99.90
23719;DHT22;43322;52.230;5.702;2023-04-23T11:20:07;18.50;99.90
23719;DHT22;43322;52.230;5.702;2023-04-23T11:22:37;18.60;99.90
23719;DHT22;43322;52.230;5.702;2023-04-23T11:25:08;18.30;99.90
23719;DHT22;43322;52.230;5.702;2023-04-23T11:27:37;18.00;99.90
23719;DHT22;43322;52.230;5.702;2023-04-23T11:30:05;17.80;99.90
23719;DHT22;43322;52.230;5.702;2023-04-23T11:32:36;17.90;99.90
23719;DHT22;43322;52.230;5.702;2023-04-23T11:35:02;18.40;99.90
23719;DHT22;43322;52.230;5.702;2023-04-23T11:37:30;19.00;99.90
23719;DHT22;43322;52.230;5.702;2023-04-23T11:40:04;19.40;99.90
23719;DHT22;43322;52.230;5.702;2023-04-23T11:42:40;19.90;99.90
23719;DHT22;43322;52.230;5.702;2023-04-23T11:45:17;20.30;99.90
23719;DHT22;43322;52.230;5.702;2023-04-23T11:47:45;19.80;99.90
23719;DHT22;43322;52.230;5.702;2023-04-23T11:50:17;19.40;99.90
23719;DHT22;43322;52.230;5.702;2023-04-23T11:52:43;19.10;99.90
23719;DHT22;43322;52.230;5.702;2023-04-23T11:55:12;19.60;99.90
23719;DHT22;43322;52.230;5.702;2023-04-23T11:57:40;19.50;99.90
23719;DHT22;43322;52.230;5.702;2023-04-23T12:00:15;19.70;99.90
23719;DHT22;43322;52.230;5.702;2023-04-23T12:02:52;19.40;99.90
23719;DHT22;43322;52.230;5.702;2023-04-23T12:05:20;19.70;99.90
23719;DHT22;43322;52.230;5.702;2023-04-23T12:07:49;20.00;99.90
23719;DHT22;43322;52.230;5.702;2023-04-23T12:10:18;19.90;99.90
23719;DHT22;43322;52.230;5.702;2023-04-23T12:12:50;19.80;99.90
23719;DHT22;43322;52.230;5.702;2023-04-23T12:15:17;19.30;99.90
23719;DHT22;43322;52.230;5.702;2023-04-23T12:17:48;19.10;99.90
23719;DHT22;43322;52.230;5.702;2023-04-23T12:20:17;19.00;99.90
23719;DHT22;43322;52.230;5.702;2023-04-23T12:22:44;18.90;99.90
23719;DHT22;43322;52.230;5.702;2023-04-23T12:25:11;18.80;99.90
23719;DHT22;43322;52.230;5.702;2023-04-23T12:27:40;18.70;99.90
23719;DHT22;43322;52.230;5.702;2023-04-23T12:30:08;18.50;99.90
23719;DHT22;43322;52.230;5.702;2023-04-23T12:32:36;18.50;99.90
23719;DHT22;43322;52.230;5.702;2023-04-23T12:35:03;18.80;99.90
23719;DHT22;43322;52.230;5.702;2023-04-23T12:37:35;18.60;99.90
23719;DHT22;43322;52.230;5.702;2023-04-23T12:40:02;18.70;99.90
23719;DHT22;43322;52.230;5.702;2023-04-23T12:42:32;18.20;99.90
23719;DHT22;43322;52.230;5.702;2023-04-23T12:45:06;18.40;99.90
23719;DHT22;43322;52.230;5.702;2023-04-23T12:47:33;18.70;99.90
23719;DHT22;43322;52.230;5.702;2023-04-23T12:50:00;19.30;99.90
23719;DHT22;43322;52.230;5.702;2023-04-23T12:52:28;19.80;99.90
23719;DHT22;43322;52.230;5.702;2023-04-23T12:54:56;19.80;99.90
23719;DHT22;43322;52.230;5.702;2023-04-23T12:57:24;20.50;99.90
23719;DHT22;43322;52.230;5.702;2023-04-23T12:59:52;20.80;99.90
23719;DHT22;43322;52.230;5.702;2023-04-23T13:02:21;21.30;99.90
23719;DHT22;43322;52.230;5.702;2023-04-23T13:04:48;21.40;99.90
23719;DHT22;43322;52.230;5.702;2023-04-23T13:07:14;20.50;99.90
23719;DHT22;43322;52.230;5.702;2023-04-23T13:09:41;20.30;99.90
23719;DHT22;43322;52.230;5.702;2023-04-23T13:12:08;20.50;99.90
23719;DHT22;43322;52.230;5.702;2023-04-23T13:14:35;20.40;99.90
23719;DHT22;43322;52.230;5.702;2023-04-23T13:17:01;20.70;99.90
23719;DHT22;43322;52.230;5.702;2023-04-23T13:19:29;20.70;99.90
23719;DHT22;43322;52.230;5.702;2023-04-23T13:21:58;20.40;99.90
23719;DHT22;43322;52.230;5.702;2023-04-23T13:24:25;19.70;99.90
23719;DHT22;43322;52.230;5.702;2023-04-23T13:26:51;19.40;99.90
23719;DHT22;43322;52.230;5.702;2023-04-23T13:29:18;19.30;99.90
23719;DHT22;43322;52.230;5.702;2023-04-23T13:31:45;18.80;99.90
23719;DHT22;43322;52.230;5.702;2023-04-23T13:34:11;18.70;99.90
23719;DHT22;43322;52.230;5.702;2023-04-23T13:36:39;18.60;99.90
23719;DHT22;43322;52.230;5.702;2023-04-23T13:39:06;18.40;99.90
23719;DHT22;43322;52.230;5.702;2023-04-23T13:41:34;18.30;99.90
23719;DHT22;43322;52.230;5.702;2023-04-23T13:44:00;18.20;99.90
23719;DHT22;43322;52.230;5.702;2023-04-23T13:46:27;18.30;99.90
23719;DHT22;43322;52.230;5.702;2023-04-23T13:48:55;18.20;99.90
23719;DHT22;43322;52.230;5.702;2023-04-23T13:51:22;18.40;99.90
23719;DHT22;43322;52.230;5.702;2023-04-23T13:53:50;18.50;99.90
23719;DHT22;43322;52.230;5.702;2023-04-23T13:56:17;18.40;99.90
23719;DHT22;43322;52.230;5.702;2023-04-23T13:58:43;18.40;99.90
23719;DHT22;43322;52.230;5.702;2023-04-23T14:01:13;18.20;99.90
23719;DHT22;43322;52.230;5.702;2023-04-23T14:03:40;18.00;99.90
23719;DHT22;43322;52.230;5.702;2023-04-23T14:06:07;17.80;99.90
23719;DHT22;43322;52.230;5.702;2023-04-23T14:08:34;17.70;99.90
23719;DHT22;43322;52.230;5.702;2023-04-23T14:11:02;17.80;99.90
23719;DHT22;43322;52.230;5.702;2023-04-23T14:13:30;18.00;99.90
23719;DHT22;43322;52.230;5.702;2023-04-23T14:15:57;18.10;99.90
23719;DHT22;43322;52.230;5.702;2023-04-23T14:18:24;18.30;99.90
23719;DHT22;43322;52.230;5.702;2023-04-23T14:20:51;18.10;99.90
23719;DHT22;43322;52.230;5.702;2023-04-23T14:23:48;18.00;99.90
23719;DHT22;43322;52.230;5.702;2023-04-23T14:26:26;18.00;99.90
23719;DHT22;43322;52.230;5.702;2023-04-23T14:28:57;17.80;99.90
23719;DHT22;43322;52.230;5.702;2023-04-23T14:31:27;17.60;99.90
23719;DHT22;43322;52.230;5.702;2023-04-23T14:33:55;17.40;99.90
23719;DHT22;43322;52.230;5.702;2023-04-23T14:36:23;17.10;99.90
23719;DHT22;43322;52.230;5.702;2023-04-23T14:38:50;17.20;99.90
23719;DHT22;43322;52.230;5.702;2023-04-23T14:41:16;17.10;99.90
23719;DHT22;43322;52.230;5.702;2023-04-23T14:43:44;17.10;99.90
23719;DHT22;43322;52.230;5.702;2023-04-23T14:46:11;17.00;99.90
23719;DHT22;43322;52.230;5.702;2023-04-23T14:48:38;16.90;99.90
23719;DHT22;43322;52.230;5.702;2023-04-23T14:51:04;16.90;99.90
23719;DHT22;43322;52.230;5.702;2023-04-23T14:53:31;16.70;99.90
23719;DHT22;43322;52.230;5.702;2023-04-23T14:55:58;16.70;99.90
23719;DHT22;43322;52.230;5.702;2023-04-23T14:58:25;16.50;99.90
23719;DHT22;43322;52.230;5.702;2023-04-23T15:00:53;16.30;99.90
23719;DHT22;43322;52.230;5.702;2023-04-23T15:03:20;16.20;99.90
23719;DHT22;43322;52.230;5.702;2023-04-23T15:05:46;16.20;99.90
23719;DHT22;43322;52.230;5.702;2023-04-23T15:08:13;16.10;99.90
23719;DHT22;43322;52.230;5.702;2023-04-23T15:10:42;16.10;99.90
23719;DHT22;43322;52.230;5.702;2023-04-23T15:13:30;16.10;99.90
23719;DHT22;43322;52.230;5.702;2023-04-23T15:16:07;16.10;99.90
23719;DHT22;43322;52.230;5.702;2023-04-23T15:18:34;16.10;99.90
23719;DHT22;43322;52.230;5.702;2023-04-23T15:21:00;16.00;99.90
23719;DHT22;43322;52.230;5.702;2023-04-23T15:23:29;16.10;99.90
23719;DHT22;43322;52.230;5.702;2023-04-23T15:25:56;15.70;99.90
23719;DHT22;43322;52.230;5.702;2023-04-23T15:28:23;15.50;99.90
23719;DHT22;43322;52.230;5.702;2023-04-23T15:30:49;15.20;99.90
23719;DHT22;43322;52.230;5.702;2023-04-23T15:33:17;15.00;99.90
23719;DHT22;43322;52.230;5.702;2023-04-23T15:35:46;14.90;99.90
23719;DHT22;43322;52.230;5.702;2023-04-23T15:38:15;14.60;99.90
23719;DHT22;43322;52.230;5.702;2023-04-23T15:40:42;14.50;99.90
23719;DHT22;43322;52.230;5.702;2023-04-23T15:43:10;14.00;99.90